sensor_id;sensor_type;location;lat;lon;timestamp;temperature;humidity
15906;DHT22;8051;50.820;4.884;2023-02-04T00:00:12;9.20;99.90
15906;DHT22;8051;50.820;4.884;2023-02-04T00:02:40;9.20;99.90
15906;DHT22;8051;50.820;4.884;2023-02-04T00:05:08;9.20;99.90
15906;DHT22;8051;50.820;4.884;2023-02-04T00:07:36;9.20;99.90
15906;DHT22;8051;50.820;4.884;2023-02-04T00:10:04;9.20;99.90
15906;DHT22;8051;50.820;4.884;2023-02-04T00:12:32;9.20;99.90
15906;DHT22;8051;50.820;4.884;2023-02-04T00:15:01;9.20;99.90
15906;DHT22;8051;50.820;4.884;2023-02-04T00:17:29;9.20;99.90
15906;DHT22;8051;50.820;4.884;2023-02-04T00:19:57;9.10;99.90
15906;DHT22;8051;50.820;4.884;2023-02-04T00:22:24;9.10;99.90
15906;DHT22;8051;50.820;4.884;2023-02-04T00:24:53;9.10;99.90
15906;DHT22;8051;50.820;4.884;2023-02-04T00:27:21;9.10;99.90
15906;DHT22;8051;50.820;4.884;2023-02-04T00:29:49;9.10;99.90
15906;DHT22;8051;50.820;4.884;2023-02-04T00:32:18;9.10;99.90
15906;DHT22;8051;50.820;4.884;2023-02-04T00:34:45;9.10;99.90
15906;DHT22;8051;50.820;4.884;2023-02-04T00:37:13;9.10;99.90
15906;DHT22;8051;50.820;4.884;2023-02-04T00:39:40;9.10;99.90
15906;DHT22;8051;50.820;4.884;2023-02-04T00:42:08;9.10;99.90
15906;DHT22;8051;50.820;4.884;2023-02-04T00:44:35;9.10;99.90
15906;DHT22;8051;50.820;4.884;2023-02-04T00:47:03;9.10;99.90
15906;DHT22;8051;50.820;4.884;2023-02-04T00:49:32;9.10;99.90
15906;DHT22;8051;50.820;4.884;2023-02-04T00:52:01;9.10;99.90
15906;DHT22;8051;50.820;4.884;2023-02-04T00:54:28;9.10;99.90
15906;DHT22;8051;50.820;4.884;2023-02-04T00:56:56;9.00;99.90
15906;DHT22;8051;50.820;4.884;2023-02-04T00:59:23;9.00;99.90
15906;DHT22;8051;50.820;4.884;2023-02-04T01:01:51;9.10;99.90
15906;DHT22;8051;50.820;4.884;2023-02-04T01:04:18;9.10;99.90
15906;DHT22;8051;50.820;4.884;2023-02-04T01:06:47;9.10;99.90
15906;DHT22;8051;50.820;4.884;2023-02-04T01:09:15;9.10;99.90
15906;DHT22;8051;50.820;4.884;2023-02-04T01:11:42;9.10;99.90
15906;DHT22;8051;50.820;4.884;2023-02-04T01:14:10;9.10;99.90
15906;DHT22;8051;50.820;4.884;2023-02-04T01:16:37;9.10;99.90
15906;DHT22;8051;50.820;4.884;2023-02-04T01:19:05;9.10;99.90
15906;DHT22;8051;50.820;4.884;2023-02-04T01:21:32;9.10;99.90
15906;DHT22;8051;50.820;4.884;2023-02-04T01:24:01;9.10;99.90
15906;DHT22;8051;50.820;4.884;2023-02-04T01:26:29;9.10;99.90
15906;DHT22;8051;50.820;4.884;2023-02-04T01:28:56;8.80;99.90
15906;DHT22;8051;50.820;4.884;2023-02-04T01:31:24;8.40;99.90
15906;DHT22;8051;50.820;4.884;2023-02-04T01:33:51;8.20;99.90
15906;DHT22;8051;50.820;4.884;2023-02-04T01:36:19;8.00;99.90
15906;DHT22;8051;50.820;4.884;2023-02-04T01:38:47;7.90;99.90
15906;DHT22;8051;50.820;4.884;2023-02-04T01:41:16;7.90;99.90
15906;DHT22;8051;50.820;4.884;2023-02-04T01:43:44;7.80;99.90
15906;DHT22;8051;50.820;4.884;2023-02-04T01:46:12;7.80;99.90
15906;DHT22;8051;50.820;4.884;2023-02-04T01:48:40;7.80;99.90
15906;DHT22;8051;50.820;4.884;2023-02-04T01:51:09;7.80;99.90
15906;DHT22;8051;50.820;4.884;2023-02-04T01:53:38;7.70;99.90
15906;DHT22;8051;50.820;4.884;2023-02-04T01:56:16;7.80;99.90
15906;DHT22;8051;50.820;4.884;2023-02-04T01:58:45;7.80;99.90
15906;DHT22;8051;50.820;4.884;2023-02-04T02:01:14;7.80;99.90
15906;DHT22;8051;50.820;4.884;2023-02-04T02:03:42;7.80;99.90
15906;DHT22;8051;50.820;4.884;2023-02-04T02:06:09;7.80;99.90
15906;DHT22;8051;50.820;4.884;2023-02-04T02:08:37;7.70;99.90
15906;DHT22;8051;50.820;4.884;2023-02-04T02:11:05;7.70;99.90
15906;DHT22;8051;50.820;4.884;2023-02-04T02:13:34;7.60;99.90
15906;DHT22;8051;50.820;4.884;2023-02-04T02:16:01;7.50;99.90
15906;DHT22;8051;50.820;4.884;2023-02-04T02:18:29;7.50;99.90
15906;DHT22;8051;50.820;4.884;2023-02-04T02:20:58;7.50;99.90
15906;DHT22;8051;50.820;4.884;2023-02-04T02:23:45;7.40;99.90
15906;DHT22;8051;50.820;4.884;2023-02-04T02:26:13;7.50;99.90
15906;DHT22;8051;50.820;4.884;2023-02-04T02:28:42;7.50;99.90
15906;DHT22;8051;50.820;4.884;2023-02-04T02:31:10;7.50;99.90
15906;DHT22;8051;50.820;4.884;2023-02-04T02:33:37;7.50;99.90
15906;DHT22;8051;50.820;4.884;2023-02-04T02:36:05;7.50;99.90
15906;DHT22;8051;50.820;4.884;2023-02-04T02:38:34;7.40;99.90
15906;DHT22;8051;50.820;4.884;2023-02-04T02:41:04;7.50;99.90
15906;DHT22;8051;50.820;4.884;2023-02-04T02:43:34;7.50;99.90
15906;DHT22;8051;50.820;4.884;2023-02-04T02:46:03;7.50;99.90
15906;DHT22;8051;50.820;4.884;2023-02-04T02:48:30;7.50;99.90
15906;DHT22;8051;50.820;4.884;2023-02-04T02:50:58;7.60;99.90
15906;DHT22;8051;50.820;4.884;2023-02-04T02:53:25;7.60;99.90
15906;DHT22;8051;50.820;4.884;2023-02-04T02:55:53;7.70;99.90
15906;DHT22;8051;50.820;4.884;2023-02-04T02:58:25;7.70;99.90
15906;DHT22;8051;50.820;4.884;2023-02-04T03:00:54;7.80;99.90
15906;DHT22;8051;50.820;4.884;2023-02-04T03:03:24;7.80;99.90
15906;DHT22;8051;50.820;4.884;2023-02-04T03:05:55;7.80;99.90
15906;DHT22;8051;50.820;4.884;2023-02-04T03:08:23;7.90;99.90
15906;DHT22;8051;50.820;4.884;2023-02-04T03:10:51;7.90;99.90
15906;DHT22;8051;50.820;4.884;2023-02-04T03:13:19;7.90;99.90
15906;DHT22;8051;50.820;4.884;2023-02-04T03:15:49;7.90;99.90
15906;DHT22;8051;50.820;4.884;2023-02-04T03:18:18;7.90;99.90
15906;DHT22;8051;50.820;4.884;2023-02-04T03:20:47;8.00;99.90
15906;DHT22;8051;50.820;4.884;2023-02-04T03:23:16;7.90;99.90
15906;DHT22;8051;50.820;4.884;2023-02-04T03:25:43;7.90;99.90
15906;DHT22;8051;50.820;4.884;2023-02-04T03:28:11;8.00;99.90
15906;DHT22;8051;50.820;4.884;2023-02-04T03:30:38;8.00;99.90
15906;DHT22;8051;50.820;4.884;2023-02-04T03:33:07;8.00;99.90
15906;DHT22;8051;50.820;4.884;2023-02-04T03:35:35;8.00;99.90
15906;DHT22;8051;50.820;4.884;2023-02-04T03:38:02;8.00;99.90
15906;DHT22;8051;50.820;4.884;2023-02-04T03:40:30;8.00;99.90
15906;DHT22;8051;50.820;4.884;2023-02-04T03:42:57;8.00;99.90
15906;DHT22;8051;50.820;4.884;2023-02-04T03:45:24;8.00;99.90
15906;DHT22;8051;50.820;4.884;2023-02-04T03:47:52;8.00;99.90
15906;DHT22;8051;50.820;4.884;2023-02-04T03:50:21;7.90;99.90
15906;DHT22;8051;50.820;4.884;2023-02-04T03:52:48;7.80;99.90
15906;DHT22;8051;50.820;4.884;2023-02-04T03:55:17;7.80;99.90
15906;DHT22;8051;50.820;4.884;2023-02-04T03:57:45;7.70;99.90
15906;DHT22;8051;50.820;4.884;2023-02-04T04:00:13;7.80;99.90
15906;DHT22;8051;50.820;4.884;2023-02-04T04:02:41;7.80;99.90
15906;DHT22;8051;50.820;4.884;2023-02-04T04:05:09;7.90;99.90
15906;DHT22;8051;50.820;4.884;2023-02-04T04:07:38;7.90;99.90
15906;DHT22;8051;50.820;4.884;2023-02-04T04:10:06;7.90;99.90
15906;DHT22;8051;50.820;4.884;2023-02-04T04:12:33;8.00;99.90
15906;DHT22;8051;50.820;4.884;2023-02-04T04:15:01;8.00;99.90
15906;DHT22;8051;50.820;4.884;2023-02-04T04:17:28;8.00;99.90
15906;DHT22;8051;50.820;4.884;2023-02-04T04:19:56;7.90;99.90
15906;DHT22;8051;50.820;4.884;2023-02-04T04:22:23;8.00;99.90
15906;DHT22;8051;50.820;4.884;2023-02-04T04:24:52;7.90;99.90
15906;DHT22;8051;50.820;4.884;2023-02-04T04:27:19;7.90;99.90
15906;DHT22;8051;50.820;4.884;2023-02-04T04:29:47;7.90;99.90
15906;DHT22;8051;50.820;4.884;2023-02-04T04:32:14;7.80;99.90
15906;DHT22;8051;50.820;4.884;2023-02-04T04:34:42;7.80;99.90
15906;DHT22;8051;50.820;4.884;2023-02-04T04:37:09;7.80;99.90
15906;DHT22;8051;50.820;4.884;2023-02-04T04:39:37;7.80;99.90
15906;DHT22;8051;50.820;4.884;2023-02-04T04:42:06;7.80;99.90
15906;DHT22;8051;50.820;4.884;2023-02-04T04:44:33;7.70;99.90
15906;DHT22;8051;50.820;4.884;2023-02-04T04:47:01;7.70;99.90
15906;DHT22;8051;50.820;4.884;2023-02-04T04:49:28;7.70;99.90
15906;DHT22;8051;50.820;4.884;2023-02-04T04:51:56;7.70;99.90
15906;DHT22;8051;50.820;4.884;2023-02-04T04:54:23;7.70;99.90
15906;DHT22;8051;50.820;4.884;2023-02-04T04:56:51;7.70;99.90
15906;DHT22;8051;50.820;4.884;2023-02-04T04:59:19;7.70;99.90
15906;DHT22;8051;50.820;4.884;2023-02-04T05:01:46;7.70;99.90
15906;DHT22;8051;50.820;4.884;2023-02-04T05:04:14;7.70;99.90
15906;DHT22;8051;50.820;4.884;2023-02-04T05:06:41;7.70;99.90
15906;DHT22;8051;50.820;4.884;2023-02-04T05:09:10;7.80;99.90
15906;DHT22;8051;50.820;4.884;2023-02-04T05:11:37;7.90;99.90
15906;DHT22;8051;50.820;4.884;2023-02-04T05:14:05;7.90;99.90
15906;DHT22;8051;50.820;4.884;2023-02-04T05:16:33;8.00;99.90
15906;DHT22;8051;50.820;4.884;2023-02-04T05:19:01;8.00;99.90
15906;DHT22;8051;50.820;4.884;2023-02-04T05:21:28;8.00;99.90
15906;DHT22;8051;50.820;4.884;2023-02-04T05:23:56;8.10;99.90
15906;DHT22;8051;50.820;4.884;2023-02-04T05:26:24;8.10;99.90
15906;DHT22;8051;50.820;4.884;2023-02-04T05:28:52;8.10;99.90
15906;DHT22;8051;50.820;4.884;2023-02-04T05:31:19;8.20;99.90
15906;DHT22;8051;50.820;4.884;2023-02-04T05:33:48;8.20;99.90
15906;DHT22;8051;50.820;4.884;2023-02-04T05:36:16;8.20;99.90
15906;DHT22;8051;50.820;4.884;2023-02-04T05:38:43;8.20;99.90
15906;DHT22;8051;50.820;4.884;2023-02-04T05:41:11;8.20;99.90
15906;DHT22;8051;50.820;4.884;2023-02-04T05:43:39;8.20;99.90
15906;DHT22;8051;50.820;4.884;2023-02-04T05:46:06;8.10;99.90
15906;DHT22;8051;50.820;4.884;2023-02-04T05:48:33;8.20;99.90
15906;DHT22;8051;50.820;4.884;2023-02-04T05:51:03;8.20;99.90
15906;DHT22;8051;50.820;4.884;2023-02-04T05:53:30;8.20;99.90
15906;DHT22;8051;50.820;4.884;2023-02-04T05:55:57;8.30;99.90
15906;DHT22;8051;50.820;4.884;2023-02-04T05:58:25;8.30;99.90
15906;DHT22;8051;50.820;4.884;2023-02-04T06:00:58;8.40;99.90
15906;DHT22;8051;50.820;4.884;2023-02-04T06:03:26;8.40;99.90
15906;DHT22;8051;50.820;4.884;2023-02-04T06:05:54;8.40;99.90
15906;DHT22;8051;50.820;4.884;2023-02-04T06:08:23;8.30;99.90
15906;DHT22;8051;50.820;4.884;2023-02-04T06:10:51;8.30;99.90
15906;DHT22;8051;50.820;4.884;2023-02-04T06:13:19;8.30;99.90
15906;DHT22;8051;50.820;4.884;2023-02-04T06:15:46;8.30;99.90
15906;DHT22;8051;50.820;4.884;2023-02-04T06:18:14;8.30;99.90
15906;DHT22;8051;50.820;4.884;2023-02-04T06:20:41;8.20;99.90
15906;DHT22;8051;50.820;4.884;2023-02-04T06:23:09;8.30;99.90
15906;DHT22;8051;50.820;4.884;2023-02-04T06:25:37;8.30;99.90
15906;DHT22;8051;50.820;4.884;2023-02-04T06:28:05;8.30;99.90
15906;DHT22;8051;50.820;4.884;2023-02-04T06:30:33;8.30;99.90
15906;DHT22;8051;50.820;4.884;2023-02-04T06:33:02;8.30;99.90
15906;DHT22;8051;50.820;4.884;2023-02-04T06:35:29;8.30;99.90
15906;DHT22;8051;50.820;4.884;2023-02-04T06:37:57;8.20;99.90
15906;DHT22;8051;50.820;4.884;2023-02-04T06:40:24;8.20;99.90
15906;DHT22;8051;50.820;4.884;2023-02-04T06:42:53;8.20;99.90
15906;DHT22;8051;50.820;4.884;2023-02-04T06:45:21;8.20;99.90
15906;DHT22;8051;50.820;4.884;2023-02-04T06:47:48;8.20;99.90
15906;DHT22;8051;50.820;4.884;2023-02-04T06:50:16;8.20;99.90
15906;DHT22;8051;50.820;4.884;2023-02-04T06:52:44;8.30;99.90
15906;DHT22;8051;50.820;4.884;2023-02-04T06:55:12;8.30;99.90
15906;DHT22;8051;50.820;4.884;2023-02-04T06:57:40;8.30;99.90
15906;DHT22;8051;50.820;4.884;2023-02-04T07:00:11;8.20;99.90
15906;DHT22;8051;50.820;4.884;2023-02-04T07:02:40;8.30;99.90
15906;DHT22;8051;50.820;4.884;2023-02-04T07:05:08;8.30;99.90
15906;DHT22;8051;50.820;4.884;2023-02-04T07:07:35;8.20;99.90
15906;DHT22;8051;50.820;4.884;2023-02-04T07:10:03;8.20;99.90
15906;DHT22;8051;50.820;4.884;2023-02-04T07:12:31;8.20;99.90
15906;DHT22;8051;50.820;4.884;2023-02-04T07:14:58;8.20;99.90
15906;DHT22;8051;50.820;4.884;2023-02-04T07:17:27;8.20;99.90
15906;DHT22;8051;50.820;4.884;2023-02-04T07:19:55;8.20;99.90
15906;DHT22;8051;50.820;4.884;2023-02-04T07:22:22;8.20;99.90
15906;DHT22;8051;50.820;4.884;2023-02-04T07:24:49;8.20;99.90
15906;DHT22;8051;50.820;4.884;2023-02-04T07:27:17;8.20;99.90
15906;DHT22;8051;50.820;4.884;2023-02-04T07:29:45;8.20;99.90
15906;DHT22;8051;50.820;4.884;2023-02-04T07:32:13;8.30;99.90
15906;DHT22;8051;50.820;4.884;2023-02-04T07:34:42;8.20;99.90
15906;DHT22;8051;50.820;4.884;2023-02-04T07:37:09;8.20;99.90
15906;DHT22;8051;50.820;4.884;2023-02-04T07:39:37;8.30;99.90
15906;DHT22;8051;50.820;4.884;2023-02-04T07:42:04;8.30;99.90
15906;DHT22;8051;50.820;4.884;2023-02-04T07:44:32;8.20;99.90
15906;DHT22;8051;50.820;4.884;2023-02-04T07:47:00;8.20;99.90
15906;DHT22;8051;50.820;4.884;2023-02-04T07:49:27;8.20;99.90
15906;DHT22;8051;50.820;4.884;2023-02-04T07:51:56;8.30;99.90
15906;DHT22;8051;50.820;4.884;2023-02-04T07:54:24;8.30;99.90
15906;DHT22;8051;50.820;4.884;2023-02-04T07:56:51;8.30;99.90
15906;DHT22;8051;50.820;4.884;2023-02-04T07:59:19;8.40;99.90
15906;DHT22;8051;50.820;4.884;2023-02-04T08:01:46;8.40;99.90
15906;DHT22;8051;50.820;4.884;2023-02-04T08:04:14;8.50;99.90
15906;DHT22;8051;50.820;4.884;2023-02-04T08:06:42;8.50;99.90
15906;DHT22;8051;50.820;4.884;2023-02-04T08:09:11;8.50;99.90
15906;DHT22;8051;50.820;4.884;2023-02-04T08:11:38;8.60;99.90
15906;DHT22;8051;50.820;4.884;2023-02-04T08:14:06;8.60;99.90
15906;DHT22;8051;50.820;4.884;2023-02-04T08:16:33;8.70;99.90
15906;DHT22;8051;50.820;4.884;2023-02-04T08:19:00;8.70;99.90
15906;DHT22;8051;50.820;4.884;2023-02-04T08:21:28;8.80;99.90
15906;DHT22;8051;50.820;4.884;2023-02-04T08:23:56;8.90;99.90
15906;DHT22;8051;50.820;4.884;2023-02-04T08:26:25;8.90;99.90
15906;DHT22;8051;50.820;4.884;2023-02-04T08:28:52;8.90;99.90
15906;DHT22;8051;50.820;4.884;2023-02-04T08:31:19;8.90;99.90
15906;DHT22;8051;50.820;4.884;2023-02-04T08:33:47;9.00;99.90
15906;DHT22;8051;50.820;4.884;2023-02-04T08:36:14;9.00;99.90
15906;DHT22;8051;50.820;4.884;2023-02-04T08:38:41;9.00;99.90
15906;DHT22;8051;50.820;4.884;2023-02-04T08:41:09;9.10;99.90
15906;DHT22;8051;50.820;4.884;2023-02-04T08:43:38;9.10;99.90
15906;DHT22;8051;50.820;4.884;2023-02-04T08:46:06;9.20;99.90
15906;DHT22;8051;50.820;4.884;2023-02-04T08:48:33;9.20;99.90
15906;DHT22;8051;50.820;4.884;2023-02-04T08:51:00;9.20;99.90
15906;DHT22;8051;50.820;4.884;2023-02-04T08:53:28;9.20;99.90
15906;DHT22;8051;50.820;4.884;2023-02-04T08:55:56;9.20;99.90
15906;DHT22;8051;50.820;4.884;2023-02-04T08:58:23;9.30;99.90
15906;DHT22;8051;50.820;4.884;2023-02-04T09:00:52;9.30;99.90
15906;DHT22;8051;50.820;4.884;2023-02-04T09:03:20;9.40;99.90
15906;DHT22;8051;50.820;4.884;2023-02-04T09:05:47;9.40;99.90
15906;DHT22;8051;50.820;4.884;2023-02-04T09:08:15;9.40;99.90
15906;DHT22;8051;50.820;4.884;2023-02-04T09:10:43;9.40;99.90
15906;DHT22;8051;50.820;4.884;2023-02-04T09:13:10;9.50;99.90
15906;DHT22;8051;50.820;4.884;2023-02-04T09:15:39;9.50;99.90
15906;DHT22;8051;50.820;4.884;2023-02-04T09:18:08;9.50;99.90
15906;DHT22;8051;50.820;4.884;2023-02-04T09:20:41;9.60;99.90
15906;DHT22;8051;50.820;4.884;2023-02-04T09:23:08;9.70;99.90
15906;DHT22;8051;50.820;4.884;2023-02-04T09:25:37;9.70;99.90
15906;DHT22;8051;50.820;4.884;2023-02-04T09:28:05;9.80;99.90
15906;DHT22;8051;50.820;4.884;2023-02-04T09:30:34;9.80;99.90
15906;DHT22;8051;50.820;4.884;2023-02-04T09:33:02;9.90;99.90
15906;DHT22;8051;50.820;4.884;2023-02-04T09:35:31;9.90;99.90
15906;DHT22;8051;50.820;4.884;2023-02-04T09:37:59;9.90;99.90
15906;DHT22;8051;50.820;4.884;2023-02-04T09:40:28;9.80;99.90
15906;DHT22;8051;50.820;4.884;2023-02-04T09:43:00;9.80;99.90
15906;DHT22;8051;50.820;4.884;2023-02-04T09:45:30;9.70;99.90
15906;DHT22;8051;50.820;4.884;2023-02-04T09:48:01;9.50;99.90
15906;DHT22;8051;50.820;4.884;2023-02-04T09:50:31;9.30;99.90
15906;DHT22;8051;50.820;4.884;2023-02-04T09:53:00;9.10;99.90
15906;DHT22;8051;50.820;4.884;2023-02-04T09:55:31;9.10;99.90
15906;DHT22;8051;50.820;4.884;2023-02-04T09:57:59;9.20;99.90
15906;DHT22;8051;50.820;4.884;2023-02-04T10:00:28;9.30;99.90
15906;DHT22;8051;50.820;4.884;2023-02-04T10:02:58;9.40;99.90
15906;DHT22;8051;50.820;4.884;2023-02-04T10:05:28;9.40;99.90
15906;DHT22;8051;50.820;4.884;2023-02-04T10:07:58;9.40;99.90
15906;DHT22;8051;50.820;4.884;2023-02-04T10:10:26;9.40;99.90
15906;DHT22;8051;50.820;4.884;2023-02-04T10:12:58;9.40;99.90
15906;DHT22;8051;50.820;4.884;2023-02-04T10:15:26;9.50;99.90
15906;DHT22;8051;50.820;4.884;2023-02-04T10:17:56;9.50;99.90
15906;DHT22;8051;50.820;4.884;2023-02-04T10:20:25;9.60;99.90
15906;DHT22;8051;50.820;4.884;2023-02-04T10:22:53;9.60;99.90
15906;DHT22;8051;50.820;4.884;2023-02-04T10:25:24;9.60;99.90
15906;DHT22;8051;50.820;4.884;2023-02-04T10:27:53;9.60;99.90
15906;DHT22;8051;50.820;4.884;2023-02-04T10:30:23;9.60;99.90
15906;DHT22;8051;50.820;4.884;2023-02-04T10:32:52;9.60;99.90
15906;DHT22;8051;50.820;4.884;2023-02-04T10:35:21;9.70;99.90
15906;DHT22;8051;50.820;4.884;2023-02-04T10:38:02;9.70;99.90
15906;DHT22;8051;50.820;4.884;2023-02-04T10:40:33;9.70;99.90
15906;DHT22;8051;50.820;4.884;2023-02-04T10:43:07;9.70;99.90
15906;DHT22;8051;50.820;4.884;2023-02-04T10:45:36;9.80;99.90
15906;DHT22;8051;50.820;4.884;2023-02-04T10:48:04;10.00;99.90
15906;DHT22;8051;50.820;4.884;2023-02-04T10:50:33;10.10;99.90
15906;DHT22;8051;50.820;4.884;2023-02-04T10:53:01;10.20;99.90
15906;DHT22;8051;50.820;4.884;2023-02-04T10:55:47;10.10;99.90
15906;DHT22;8051;50.820;4.884;2023-02-04T10:58:19;10.10;99.90
15906;DHT22;8051;50.820;4.884;2023-02-04T11:00:50;10.20;99.90
15906;DHT22;8051;50.820;4.884;2023-02-04T11:03:21;10.20;99.90
15906;DHT22;8051;50.820;4.884;2023-02-04T11:05:49;10.20;99.90
15906;DHT22;8051;50.820;4.884;2023-02-04T11:08:20;10.20;99.90
15906;DHT22;8051;50.820;4.884;2023-02-04T11:10:54;10.20;99.90
15906;DHT22;8051;50.820;4.884;2023-02-04T11:13:24;10.10;99.90
15906;DHT22;8051;50.820;4.884;2023-02-04T11:16:07;10.00;99.90
15906;DHT22;8051;50.820;4.884;2023-02-04T11:18:45;9.80;99.90
15906;DHT22;8051;50.820;4.884;2023-02-04T11:21:14;9.60;99.90
15906;DHT22;8051;50.820;4.884;2023-02-04T11:23:48;9.50;99.90
15906;DHT22;8051;50.820;4.884;2023-02-04T11:26:18;9.50;99.90
15906;DHT22;8051;50.820;4.884;2023-02-04T11:29:21;9.40;99.90
15906;DHT22;8051;50.820;4.884;2023-02-04T11:32:02;9.50;99.90
15906;DHT22;8051;50.820;4.884;2023-02-04T11:34:44;9.50;99.90
15906;DHT22;8051;50.820;4.884;2023-02-04T11:37:17;9.60;99.90
15906;DHT22;8051;50.820;4.884;2023-02-04T11:39:57;9.50;99.90
15906;DHT22;8051;50.820;4.884;2023-02-04T11:42:30;9.50;99.90
15906;DHT22;8051;50.820;4.884;2023-02-04T11:45:00;9.50;99.90
15906;DHT22;8051;50.820;4.884;2023-02-04T11:47:34;9.40;99.90
15906;DHT22;8051;50.820;4.884;2023-02-04T11:50:04;9.30;99.90
15906;DHT22;8051;50.820;4.884;2023-02-04T11:52:37;9.30;99.90
15906;DHT22;8051;50.820;4.884;2023-02-04T11:55:05;9.20;99.90
15906;DHT22;8051;50.820;4.884;2023-02-04T11:57:39;9.10;99.90
15906;DHT22;8051;50.820;4.884;2023-02-04T12:00:12;9.10;99.90
15906;DHT22;8051;50.820;4.884;2023-02-04T12:02:43;9.10;99.90
15906;DHT22;8051;50.820;4.884;2023-02-04T12:05:13;9.20;99.90
15906;DHT22;8051;50.820;4.884;2023-02-04T12:07:41;9.30;99.90
15906;DHT22;8051;50.820;4.884;2023-02-04T12:10:13;9.20;99.90
15906;DHT22;8051;50.820;4.884;2023-02-04T12:12:47;9.20;99.90
15906;DHT22;8051;50.820;4.884;2023-02-04T12:15:20;9.20;99.90
15906;DHT22;8051;50.820;4.884;2023-02-04T12:18:00;9.30;99.90
15906;DHT22;8051;50.820;4.884;2023-02-04T12:20:28;9.40;99.90
15906;DHT22;8051;50.820;4.884;2023-02-04T12:22:56;9.50;99.90
15906;DHT22;8051;50.820;4.884;2023-02-04T12:25:24;9.50;99.90
15906;DHT22;8051;50.820;4.884;2023-02-04T12:27:53;9.50;99.90
15906;DHT22;8051;50.820;4.884;2023-02-04T12:30:21;9.50;99.90
15906;DHT22;8051;50.820;4.884;2023-02-04T12:32:50;9.50;99.90
15906;DHT22;8051;50.820;4.884;2023-02-04T12:35:18;9.50;99.90
15906;DHT22;8051;50.820;4.884;2023-02-04T12:37:45;9.60;99.90
15906;DHT22;8051;50.820;4.884;2023-02-04T12:40:15;9.60;99.90
15906;DHT22;8051;50.820;4.884;2023-02-04T12:42:43;9.60;99.90
15906;DHT22;8051;50.820;4.884;2023-02-04T12:45:13;9.80;99.90
15906;DHT22;8051;50.820;4.884;2023-02-04T12:47:42;9.90;99.90
15906;DHT22;8051;50.820;4.884;2023-02-04T12:50:11;10.00;99.90
15906;DHT22;8051;50.820;4.884;2023-02-04T12:52:39;10.00;99.90
15906;DHT22;8051;50.820;4.884;2023-02-04T12:55:07;9.90;99.90
15906;DHT22;8051;50.820;4.884;2023-02-04T12:57:35;9.90;99.90
15906;DHT22;8051;50.820;4.884;2023-02-04T13:00:04;9.90;99.90
15906;DHT22;8051;50.820;4.884;2023-02-04T13:02:33;10.00;99.90
15906;DHT22;8051;50.820;4.884;2023-02-04T13:05:01;10.10;99.90
15906;DHT22;8051;50.820;4.884;2023-02-04T13:07:28;10.10;99.90
15906;DHT22;8051;50.820;4.884;2023-02-04T13:09:56;10.10;99.90
15906;DHT22;8051;50.820;4.884;2023-02-04T13:12:23;10.10;99.90
15906;DHT22;8051;50.820;4.884;2023-02-04T13:14:51;10.10;99.90
15906;DHT22;8051;50.820;4.884;2023-02-04T13:17:18;10.00;99.90
15906;DHT22;8051;50.820;4.884;2023-02-04T13:19:47;10.10;99.90
15906;DHT22;8051;50.820;4.884;2023-02-04T13:22:15;10.10;99.90
15906;DHT22;8051;50.820;4.884;2023-02-04T13:24:42;10.10;99.90
15906;DHT22;8051;50.820;4.884;2023-02-04T13:27:10;10.10;99.90
15906;DHT22;8051;50.820;4.884;2023-02-04T13:29:37;10.10;99.90
15906;DHT22;8051;50.820;4.884;2023-02-04T13:32:05;10.30;99.90
15906;DHT22;8051;50.820;4.884;2023-02-04T13:34:32;10.50;99.90
15906;DHT22;8051;50.820;4.884;2023-02-04T13:37:01;10.60;99.90
15906;DHT22;8051;50.820;4.884;2023-02-04T13:39:29;10.70;99.90
15906;DHT22;8051;50.820;4.884;2023-02-04T13:41:56;10.70;99.90
15906;DHT22;8051;50.820;4.884;2023-02-04T13:44:24;10.80;99.90
15906;DHT22;8051;50.820;4.884;2023-02-04T13:46:51;10.90;99.90
15906;DHT22;8051;50.820;4.884;2023-02-04T13:49:19;11.00;99.90
15906;DHT22;8051;50.820;4.884;2023-02-04T13:51:47;11.00;99.90
15906;DHT22;8051;50.820;4.884;2023-02-04T13:54:16;11.00;99.90
15906;DHT22;8051;50.820;4.884;2023-02-04T13:56:44;11.00;99.90
15906;DHT22;8051;50.820;4.884;2023-02-04T13:59:11;11.00;99.90
15906;DHT22;8051;50.820;4.884;2023-02-04T14:01:38;11.00;99.90
15906;DHT22;8051;50.820;4.884;2023-02-04T14:04:06;11.00;99.90
15906;DHT22;8051;50.820;4.884;2023-02-04T14:06:33;11.00;99.90
15906;DHT22;8051;50.820;4.884;2023-02-04T14:09:08;10.90;99.90
15906;DHT22;8051;50.820;4.884;2023-02-04T14:11:38;10.80;99.90
15906;DHT22;8051;50.820;4.884;2023-02-04T14:14:06;10.80;99.90
15906;DHT22;8051;50.820;4.884;2023-02-04T14:16:33;10.90;99.90
15906;DHT22;8051;50.820;4.884;2023-02-04T14:19:01;10.80;99.90
15906;DHT22;8051;50.820;4.884;2023-02-04T14:21:28;10.80;99.90
15906;DHT22;8051;50.820;4.884;2023-02-04T14:23:56;10.80;99.90
15906;DHT22;8051;50.820;4.884;2023-02-04T14:26:24;10.70;99.90
15906;DHT22;8051;50.820;4.884;2023-02-04T14:28:52;10.70;99.90
15906;DHT22;8051;50.820;4.884;2023-02-04T14:31:20;10.60;99.90
15906;DHT22;8051;50.820;4.884;2023-02-04T14:33:47;10.60;99.90
15906;DHT22;8051;50.820;4.884;2023-02-04T14:36:15;10.70;99.90
15906;DHT22;8051;50.820;4.884;2023-02-04T14:38:42;10.70;99.90
15906;DHT22;8051;50.820;4.884;2023-02-04T14:41:10;10.70;99.90
15906;DHT22;8051;50.820;4.884;2023-02-04T14:43:41;10.70;99.90
15906;DHT22;8051;50.820;4.884;2023-02-04T14:46:10;10.70;99.90
15906;DHT22;8051;50.820;4.884;2023-02-04T14:48:37;10.70;99.90
15906;DHT22;8051;50.820;4.884;2023-02-04T14:51:05;10.70;99.90
15906;DHT22;8051;50.820;4.884;2023-02-04T14:53:32;10.70;99.90
15906;DHT22;8051;50.820;4.884;2023-02-04T14:56:00;10.70;99.90
15906;DHT22;8051;50.820;4.884;2023-02-04T14:58:27;10.70;99.90
15906;DHT22;8051;50.820;4.884;2023-02-04T15:00:55;10.80;99.90
15906;DHT22;8051;50.820;4.884;2023-02-04T15:03:24;10.80;99.90
15906;DHT22;8051;50.820;4.884;2023-02-04T15:05:51;10.80;99.90
15906;DHT22;8051;50.820;4.884;2023-02-04T15:08:19;10.80;99.90
15906;DHT22;8051;50.820;4.884;2023-02-04T15:10:47;10.70;99.90
15906;DHT22;8051;50.820;4.884;2023-02-04T15:13:14;10.70;99.90
15906;DHT22;8051;50.820;4.884;2023-02-04T15:15:42;10.60;99.90
15906;DHT22;8051;50.820;4.884;2023-02-04T15:18:09;10.50;99.90
15906;DHT22;8051;50.820;4.884;2023-02-04T15:20:38;10.50;99.90
15906;DHT22;8051;50.820;4.884;2023-02-04T15:23:06;10.50;99.90
15906;DHT22;8051;50.820;4.884;2023-02-04T15:25:33;10.60;99.90
15906;DHT22;8051;50.820;4.884;2023-02-04T15:28:01;10.60;99.90
15906;DHT22;8051;50.820;4.884;2023-02-04T15:30:28;10.50;99.90
15906;DHT22;8051;50.820;4.884;2023-02-04T15:32:56;10.50;99.90
15906;DHT22;8051;50.820;4.884;2023-02-04T15:35:23;10.60;99.90
15906;DHT22;8051;50.820;4.884;2023-02-04T15:37:52;10.60;99.90
15906;DHT22;8051;50.820;4.884;2023-02-04T15:40:19;10.60;99.90
15906;DHT22;8051;50.820;4.884;2023-02-04T15:42:47;10.70;99.90
15906;DHT22;8051;50.820;4.884;2023-02-04T15:45:15;10.70;99.90
15906;DHT22;8051;50.820;4.884;2023-02-04T15:47:43;10.70;99.90
15906;DHT22;8051;50.820;4.884;2023-02-04T15:50:10;10.70;99.90
15906;DHT22;8051;50.820;4.884;2023-02-04T15:52:40;10.70;99.90
15906;DHT22;8051;50.820;4.884;2023-02-04T15:55:09;10.70;99.90
15906;DHT22;8051;50.820;4.884;2023-02-04T15:57:36;10.70;99.90
15906;DHT22;8051;50.820;4.884;2023-02-04T16:00:05;10.70;99.90
15906;DHT22;8051;50.820;4.884;2023-02-04T16:02:33;10.70;99.90
15906;DHT22;8051;50.820;4.884;2023-02-04T16:05:02;10.70;99.90